Andrew, Illinois
Current Conditions -  °F | °C
As of 10:52 AM on Saturday 22 Nov 2014 (Local Time) from KSPI Reporting Station
Overcast Overcast  
Wind Chill: 13°   Ceiling: 7500
Heat Index: 13°   Visibility: 10mi
Dew Point:   Wind: 18mph
Humidity: 69%   Direction: 200°SSW
Pressure: 30.03"   Gusts: 28mph
Location:  39.854°N, 89.6295°W
Report Text: KSPI 221652Z 20016G24KT 10SM SCT032 OVC075 13/07 A3003 RMK AO2 PK WND 20027/1642 SLP170 T01280072
Loading
Personal Weather Stations






























Interactive Weather Map New forecast layout! Learn more

10-Day Weather Forecast

Advertisements
Track Severe Weather on mobile